Time;durP1;ratioP1;P1;durP2;ratioP2;P2;SDS_P1;SDS_P2;PMS_P1;PMS_P2;Temp;Humidity;BMP_temperature;BMP_pressure;BME280_temperature;BME280_humidity;BME280_pressure;Samples;Min_cycle;Max_cycle;Signal;HPM_P1;HPM_P2
2022/11/09 00:03:58;;;;;;;12.53;7.17;;;;;;;10.43;91.67;96183.44;10375446;28;20249;-74
2022/11/09 00:08:59;;;;;;;12.17;7.07;;;;;;;10.44;91.46;96187.69;10373999;28;20847;-74
2022/11/09 00:14:00;;;;;;;11.93;7.73;;;;;;;10.37;92.53;96196.38;10374314;28;20654;-74
2022/11/09 00:19:00;;;;;;;11.17;6.93;;;;;;;10.46;91.58;96190.97;10374028;28;20189;-74
2022/11/09 00:24:00;;;;;;;8.30;5.27;;;;;;;10.42;91.25;96207.19;10373863;28;20213;-74
2022/11/09 00:29:01;;;;;;;15.07;7.23;;;;;;;10.28;92.20;96206.03;10373950;28;20197;-74
2022/11/09 00:34:01;;;;;;;12.83;7.20;;;;;;;10.24;92.49;96205.53;10373315;28;20657;-74
2022/11/09 00:39:02;;;;;;;9.27;5.97;;;;;;;10.09;93.20;96215.06;10355290;28;20383;-74
2022/11/09 00:44:02;;;;;;;10.80;7.20;;;;;;;9.97;93.67;96219.81;10371239;28;20228;-75
2022/11/09 00:49:03;;;;;;;11.97;7.00;;;;;;;9.95;94.17;96213.91;10371720;28;20562;-74
2022/11/09 00:54:03;;;;;;;11.43;6.60;;;;;;;9.97;93.50;96212.78;10371349;28;20185;-74
2022/11/09 00:59:03;;;;;;;12.37;7.17;;;;;;;9.91;94.23;96215.25;10372294;28;20181;-74
2022/11/09 01:04:04;;;;;;;10.93;6.33;;;;;;;9.94;93.49;96220.97;10372632;28;20699;-74
2022/11/09 01:09:06;;;;;;;8.80;6.50;;;;;;;9.89;93.80;96211.97;10372192;28;20196;-74
2022/11/09 01:14:09;;;;;;;10.80;4.97;;;;;;;9.91;92.87;96195.13;10372079;28;20194;-74
2022/11/09 01:19:10;;;;;;;8.57;5.47;;;;;;;9.96;92.41;96187.59;10371014;28;20185;-74
2022/11/09 01:24:11;;;;;;;10.93;6.00;;;;;;;10.05;90.65;96185.78;10370620;28;20233;-74
2022/11/09 01:29:11;;;;;;;8.40;4.90;;;;;;;10.28;89.30;96170.19;10371180;28;20185;-74
2022/11/09 01:34:11;;;;;;;9.67;5.17;;;;;;;10.37;88.33;96163.16;10371628;28;20268;-74
2022/11/09 01:39:12;;;;;;;8.70;4.50;;;;;;;10.34;88.36;96160.88;10370943;28;20601;-74
2022/11/09 01:44:17;;;;;;;5.70;4.17;;;;;;;10.39;87.73;96155.16;10370951;28;20240;-74
2022/11/09 01:49:33;;;;;;;7.23;5.03;;;;;;;10.47;87.30;96149.88;10370841;28;20190;-74
2022/11/09 01:54:40;;;;;;;7.67;4.83;;;;;;;10.40;87.27;96156.75;10370624;28;20300;-73
2022/11/09 01:59:44;;;;;;;5.47;3.53;;;;;;;10.74;85.58;96145.19;10369373;28;20684;-73
2022/11/09 02:04:56;;;;;;;6.40;3.93;;;;;;;10.75;85.23;96141.56;10380154;28;20246;-73
2022/11/09 02:10:02;;;;;;;5.40;3.67;;;;;;;10.84;85.03;96140.53;10407879;28;20539;-74
2022/11/09 02:15:05;;;;;;;6.97;4.00;;;;;;;11.01;83.51;96123.72;10390354;28;20192;-74
2022/11/09 02:20:09;;;;;;;5.32;3.75;;;;;;;11.06;83.29;96117.97;10376257;28;20553;-74
2022/11/09 02:25:12;;;;;;;5.60;3.73;;;;;;;11.13;83.01;96118.88;10410255;28;20213;-74
2022/11/09 02:30:13;;;;;;;5.50;3.87;;;;;;;11.18;82.52;96119.19;10375884;28;20189;-74
2022/11/09 02:35:14;;;;;;;6.37;3.40;;;;;;;11.18;82.85;96113.13;10392072;28;20535;-74
2022/11/09 02:40:39;;;;;;;5.27;3.47;;;;;;;11.19;82.53;96105.09;10392283;28;20241;-73
2022/11/09 02:45:40;;;;;;;8.00;3.55;;;;;;;11.07;82.91;96111.72;10391822;28;20711;-74
2022/11/09 02:50:40;;;;;;;6.07;3.70;;;;;;;10.91;83.80;96122.34;10410025;28;20188;-74
2022/11/09 02:55:41;;;;;;;7.73;3.83;;;;;;;10.92;83.32;96121.31;10408819;28;20183;-74
2022/11/09 03:00:42;;;;;;;4.90;2.90;;;;;;;10.91;83.14;96110.03;10375039;28;20242;-74
2022/11/09 03:05:43;;;;;;;7.30;3.63;;;;;;;10.69;84.53;96130.78;10391362;28;20212;-73
2022/11/09 03:10:45;;;;;;;5.13;3.50;;;;;;;10.58;84.34;96133.81;10391634;28;20202;-73
2022/11/09 03:15:46;;;;;;;6.47;3.60;;;;;;;10.51;84.56;96136.25;10391016;28;20192;-74
2022/11/09 03:20:46;;;;;;;7.60;3.70;;;;;;;10.41;84.57;96137.47;10394104;28;20186;-73
2022/11/09 03:25:50;;;;;;;8.60;3.87;;;;;;;10.34;84.94;96135.50;10398932;28;20716;-73
2022/11/09 03:30:50;;;;;;;5.63;3.70;;;;;;;10.27;85.64;96138.94;10402543;28;20192;-74
2022/11/09 03:35:51;;;;;;;4.67;3.50;;;;;;;10.24;85.76;96128.81;10408011;28;20209;-73
2022/11/09 03:40:52;;;;;;;6.63;4.03;;;;;;;10.15;84.89;96130.63;10399336;28;20189;-73
2022/11/09 03:45:53;;;;;;;7.73;4.40;;;;;;;10.09;85.01;96129.53;10398550;28;20223;-74
2022/11/09 03:50:53;;;;;;;7.13;3.70;;;;;;;10.07;85.42;96146.38;10415889;28;20296;-74
2022/11/09 03:55:56;;;;;;;7.90;4.03;;;;;;;9.99;85.51;96150.63;10415544;28;20188;-73
2022/11/09 04:00:57;;;;;;;7.00;4.80;;;;;;;9.83;86.81;96161.09;10415941;28;20560;-73
2022/11/09 04:05:58;;;;;;;7.07;4.97;;;;;;;9.74;87.08;96154.25;10412111;28;20227;-73
2022/11/09 04:10:59;;;;;;;9.07;5.20;;;;;;;9.67;87.61;96158.53;10412561;28;20193;-74
2022/11/09 04:15:59;;;;;;;5.80;3.67;;;;;;;9.67;88.32;96151.50;10393754;28;20551;-73
2022/11/09 04:21:00;;;;;;;12.77;5.40;;;;;;;9.54;88.60;96157.22;10412269;28;20191;-73
2022/11/09 04:26:00;;;;;;;10.10;5.27;;;;;;;9.62;88.26;96145.94;10410892;28;20286;-74
2022/11/09 04:31:01;;;;;;;29.70;16.10;;;;;;;9.62;88.57;96164.25;10410539;28;20200;-73
2022/11/09 04:36:03;;;;;;;8.87;5.33;;;;;;;9.64;89.20;96157.84;10410739;28;20244;-73
2022/11/09 04:41:03;;;;;;;8.37;5.03;;;;;;;9.74;88.35;96151.63;10411025;28;20615;-74
2022/11/09 04:46:04;;;;;;;27.07;13.40;;;;;;;9.67;88.69;96154.09;10411020;28;20262;-73
2022/11/09 04:51:06;;;;;;;14.20;9.47;;;;;;;9.71;87.93;96142.34;10410155;28;20833;-74
2022/11/09 04:56:07;;;;;;;8.57;5.33;;;;;;;9.84;87.47;96143.63;10410815;28;20571;-73
2022/11/09 05:01:11;;;;;;;10.73;6.70;;;;;;;9.80;87.34;96137.91;10409553;28;20196;-75
2022/11/09 05:11:31;;;;;;;6.63;4.10;;;;;;;9.80;87.88;96136.13;10413507;28;20188;-75
2022/11/09 05:16:31;;;;;;;7.77;4.27;;;;;;;9.91;86.80;96139.38;10412696;28;20707;-73
2022/11/09 05:21:32;;;;;;;8.03;6.03;;;;;;;9.97;86.08;96130.88;10412930;28;20188;-74
2022/11/09 05:26:37;;;;;;;12.57;7.60;;;;;;;9.92;85.53;96141.84;10411891;28;20217;-74
2022/11/09 05:31:39;;;;;;;8.83;4.20;;;;;;;9.87;86.19;96144.09;10412808;28;20559;-74
2022/11/09 05:36:39;;;;;;;8.40;5.43;;;;;;;9.87;85.68;96140.69;10411991;28;20240;-74
2022/11/09 05:41:39;;;;;;;10.53;5.13;;;;;;;9.86;86.34;96133.81;10412008;28;20188;-75
2022/11/09 05:46:40;;;;;;;10.53;6.63;;;;;;;9.87;85.56;96127.59;10411210;28;20219;-74
2022/11/09 05:51:40;;;;;;;8.17;5.40;;;;;;;9.99;85.67;96131.50;10411453;28;20330;-74
2022/11/09 05:56:40;;;;;;;9.07;4.40;;;;;;;10.08;84.60;96120.03;10411478;28;20203;-74
2022/11/09 06:01:41;;;;;;;8.80;5.90;;;;;;;10.04;84.39;96115.31;10411529;28;20295;-74
2022/11/09 06:06:42;;;;;;;5.40;3.83;;;;;;;9.99;85.13;96119.22;10411058;28;20217;-75
2022/11/09 06:11:42;;;;;;;7.00;4.80;;;;;;;9.82;86.29;96142.00;10411064;28;20196;-74
2022/11/09 06:16:42;;;;;;;11.40;5.53;;;;;;;9.78;86.71;96139.88;10410755;28;20181;-75
2022/11/09 06:21:43;;;;;;;7.57;5.87;;;;;;;9.86;86.53;96175.66;10410798;28;20587;-74
2022/11/09 06:26:43;;;;;;;7.77;5.03;;;;;;;9.99;85.64;96183.84;10426064;28;20223;-74
2022/11/09 06:31:45;;;;;;;8.00;4.47;;;;;;;10.07;85.39;96190.84;10405528;28;20231;-75
2022/11/09 06:36:45;;;;;;;5.93;3.50;;;;;;;10.04;84.33;96188.56;10387368;28;20234;-75
2022/11/09 06:41:45;;;;;;;9.47;5.63;;;;;;;9.81;86.70;96212.78;10380434;28;20193;-74
2022/11/09 06:46:46;;;;;;;8.57;5.30;;;;;;;9.60;88.82;96228.97;10351460;28;20753;-74
2022/11/09 06:51:46;;;;;;;10.53;6.50;;;;;;;9.36;90.78;96248.88;10376725;28;20569;-75
2022/11/09 06:56:46;;;;;;;10.53;6.47;;;;;;;9.15;92.77;96254.53;10409381;28;20215;-74
2022/11/09 07:01:47;;;;;;;15.27;6.53;;;;;;;9.01;94.15;96258.56;10410047;28;20184;-74
2022/11/09 07:06:47;;;;;;;13.47;8.33;;;;;;;8.82;95.25;96264.03;10409258;28;20582;-75
2022/11/09 07:11:48;;;;;;;16.13;9.33;;;;;;;8.72;96.49;96283.25;10402645;28;20200;-74
2022/11/09 07:16:48;;;;;;;14.00;8.03;;;;;;;8.66;97.18;96242.09;10404184;28;20227;-74
2022/11/09 07:21:48;;;;;;;11.93;6.17;;;;;;;8.78;96.75;96241.84;10409479;28;20195;-75
2022/11/09 07:26:49;;;;;;;12.43;7.53;;;;;;;8.90;96.00;96266.69;10410008;28;20220;-75
2022/11/09 07:31:49;;;;;;;8.23;6.43;;;;;;;9.12;94.69;96256.66;10408994;28;20196;-75
2022/11/09 07:36:52;;;;;;;15.83;8.33;;;;;;;9.05;94.33;96254.69;10403210;28;20591;-75
2022/11/09 07:41:54;;;;;;;10.87;7.77;;;;;;;9.09;95.36;96278.69;10384689;28;20189;-75
2022/11/09 07:46:54;;;;;;;9.40;7.00;;;;;;;9.13;94.67;96268.72;10383361;28;20213;-75
2022/11/09 07:51:54;;;;;;;12.23;7.93;;;;;;;9.23;93.83;96253.72;10392960;28;20189;-75
2022/11/09 07:56:55;;;;;;;13.60;7.27;;;;;;;9.45;92.80;96260.19;10404597;28;20184;-74
2022/11/09 08:01:55;;;;;;;12.60;7.43;;;;;;;9.57;91.33;96264.13;10414094;28;20192;-75
2022/11/09 08:13:19;;;;;;;12.40;9.13;;;;;;;9.79;90.33;96272.31;10453278;28;20196;-75
2022/11/09 08:18:20;;;;;;;10.50;7.20;;;;;;;10.04;89.49;96275.75;10438316;28;20197;-75
2022/11/09 08:23:21;;;;;;;18.33;11.30;;;;;;;10.14;89.33;96279.03;10393550;28;20201;-75
2022/11/09 08:28:22;;;;;;;9.07;5.10;;;;;;;10.20;88.27;96272.31;10411600;28;20200;-75
2022/11/09 08:33:22;;;;;;;10.17;6.00;;;;;;;10.39;88.83;96275.59;10411888;28;20557;-75
2022/11/09 08:38:23;;;;;;;9.07;6.20;;;;;;;10.44;88.64;96266.25;10410984;28;20347;-75
2022/11/09 08:43:30;;;;;;;9.23;5.40;;;;;;;10.56;89.25;96276.38;10367724;28;20221;-75
2022/11/09 08:48:33;;;;;;;8.43;5.60;;;;;;;10.72;92.19;96292.06;10336685;28;20280;-75
2022/11/09 08:53:34;;;;;;;10.67;5.50;;;;;;;10.83;92.66;96293.50;10369857;28;20181;-76
2022/11/09 08:58:35;;;;;;;9.67;5.97;;;;;;;10.93;92.17;96291.50;10395402;28;20237;-76
2022/11/09 09:03:35;;;;;;;14.80;6.30;;;;;;;11.00;91.44;96283.78;10434874;28;20676;-75
2022/11/09 09:08:35;;;;;;;11.27;7.00;;;;;;;11.08;90.80;96281.13;10451589;28;20282;-74
2022/11/09 09:13:36;;;;;;;9.97;5.60;;;;;;;11.01;90.29;96274.91;10449048;28;20203;-75
2022/11/09 09:18:36;;;;;;;10.20;6.03;;;;;;;11.03;89.35;96260.66;10451218;28;20196;-75
2022/11/09 09:23:37;;;;;;;9.07;5.63;;;;;;;11.27;88.94;96281.69;10451879;28;20715;-75
2022/11/09 09:28:37;;;;;;;11.70;5.93;;;;;;;11.40;88.94;96274.91;10450964;28;20231;-76
2022/11/09 09:33:38;;;;;;;7.88;5.13;;;;;;;11.45;88.40;96266.50;10450752;28;20190;-76
2022/11/09 09:38:38;;;;;;;10.73;5.97;;;;;;;11.49;88.82;96278.31;10449402;28;20358;-75
2022/11/09 09:43:41;;;;;;;10.02;7.00;;;;;;;11.38;89.71;96290.00;10392076;28;20209;-75
2022/11/09 09:48:45;;;;;;;12.02;7.55;;;;;;;11.36;92.06;96288.53;10369037;28;20255;-75
2022/11/09 09:53:49;;;;;;;16.13;7.97;;;;;;;11.62;90.98;96277.72;10384491;28;20235;-75
2022/11/09 09:59:08;;;;;;;16.77;7.35;;;;;;;11.67;91.24;96283.28;10368041;28;20185;-75
2022/11/09 10:04:23;;;;;;;17.92;7.30;;;;;;;11.69;91.38;96270.00;10363269;28;20220;-75
2022/11/09 10:09:40;;;;;;;17.00;7.53;;;;;;;11.53;93.76;96271.72;10348975;28;20280;-75
2022/11/09 10:15:08;;;;;;;13.93;7.10;;;;;;;11.37;98.37;96293.59;10366597;28;20192;-75
2022/11/09 10:20:31;;;;;;;15.88;7.18;;;;;;;11.19;100.00;96288.63;10397290;28;20204;-77
2022/11/09 10:25:36;;;;;;;16.50;7.90;;;;;;;11.08;100.00;96281.13;10408023;28;20323;-76
2022/11/09 10:30:36;;;;;;;11.47;3.60;;;;;;;11.00;100.00;96281.16;10390725;28;20223;-76
2022/11/09 10:35:43;;;;;;;8.68;5.53;;;;;;;10.93;100.00;96267.91;10391288;28;20238;-77
2022/11/09 10:41:02;;;;;;;9.20;5.37;;;;;;;10.91;100.00;96259.41;10391816;28;20199;-76
2022/11/09 10:46:21;;;;;;;10.50;5.50;;;;;;;11.01;100.00;96249.53;10391104;28;20213;-76
2022/11/09 10:51:48;;;;;;;6.63;5.33;;;;;;;11.18;100.00;96247.66;10390833;28;20196;-77
2022/11/09 10:57:29;;;;;;;8.10;4.87;;;;;;;11.17;100.00;96250.44;10406263;28;20582;-76
2022/11/09 11:03:20;;;;;;;8.23;5.17;;;;;;;11.17;100.00;96237.34;10406612;28;20184;-77
2022/11/09 11:09:19;;;;;;;8.77;5.23;;;;;;;11.26;100.00;96246.81;10409971;28;20212;-77
2022/11/09 11:14:57;;;;;;;7.40;5.50;;;;;;;11.29;100.00;96241.22;10305258;28;20295;-76
2022/11/09 11:21:14;;;;;;;8.82;5.50;;;;;;;11.26;100.00;96232.88;10410025;28;20244;-76
2022/11/09 11:27:10;;;;;;;8.55;5.30;;;;;;;11.21;100.00;96223.72;10280867;28;20589;-76
2022/11/09 11:33:24;;;;;;;;;;;;;;;;;;;;;
2022/11/09 11:38:56;;;;;;;10.00;6.63;;;;;;;11.68;100.00;96218.50;10238933;28;20340;-76
2022/11/09 11:44:25;;;;;;;12.88;7.82;;;;;;;11.64;100.00;96196.22;10332759;28;20348;-76
2022/11/09 11:49:54;;;;;;;15.48;6.40;;;;;;;11.72;100.00;96188.31;10334742;28;20194;-76
2022/11/09 11:55:18;;;;;;;11.20;7.35;;;;;;;11.51;100.00;96184.50;10335480;28;20666;-76
2022/11/09 12:00:57;;;;;;;15.15;8.82;;;;;;;11.47;100.00;96185.88;10333647;28;20607;-76
2022/11/09 12:06:38;;;;;;;14.52;8.55;;;;;;;11.35;100.00;96195.94;10338058;28;20238;-75
2022/11/09 12:12:19;;;;;;;11.18;6.65;;;;;;;11.40;100.00;96171.81;10329984;28;20202;-76
2022/11/09 12:18:10;;;;;;;16.92;10.32;;;;;;;11.41;100.00;96182.13;10322208;28;20737;-76
2022/11/09 12:23:48;;;;;;;15.88;9.57;;;;;;;11.42;100.00;96188.19;10352993;28;20586;-75
2022/11/09 12:29:16;;;;;;;14.57;6.95;;;;;;;11.22;100.00;96195.69;10370406;28;20190;-76
2022/11/09 12:34:56;;;;;;;19.30;10.65;;;;;;;10.70;100.00;96179.59;10372781;28;20276;-76
2022/11/09 12:40:25;;;;;;;17.83;9.67;;;;;;;10.82;100.00;96168.72;10317104;28;20233;-76
2022/11/09 12:45:45;;;;;;;16.57;9.93;;;;;;;10.84;100.00;96211.28;10331320;28;20226;-76
2022/11/09 12:51:06;;;;;;;19.15;11.15;;;;;;;10.80;100.00;96149.75;10330861;28;20194;-75
2022/11/09 12:56:32;;;;;;;18.83;8.87;;;;;;;10.89;100.00;96185.41;10335499;28;20971;-76
2022/11/09 13:01:54;;;;;;;17.80;11.03;;;;;;;10.81;100.00;96169.69;10372081;28;20235;-75
2022/11/09 13:07:13;;;;;;;18.15;10.77;;;;;;;10.71;100.00;96196.13;10333094;28;20221;-75
2022/11/09 13:12:34;;;;;;;16.60;8.37;;;;;;;10.68;100.00;96189.41;10351042;28;20275;-75
2022/11/09 13:18:21;;;;;;;22.42;11.32;;;;;;;10.67;100.00;96195.66;10357231;28;20201;-75
2022/11/09 13:23:40;;;;;;;19.50;9.90;;;;;;;10.79;100.00;96169.06;10370663;28;20221;-77
2022/11/09 13:29:11;;;;;;;19.33;12.87;;;;;;;10.90;100.00;96176.53;10355912;28;20189;-76
2022/11/09 13:34:53;;;;;;;19.67;11.57;;;;;;;10.82;100.00;96180.00;10330158;28;20581;-76
2022/11/09 13:40:30;;;;;;;19.23;9.20;;;;;;;10.91;98.92;96174.75;10336833;28;20354;-75
2022/11/09 13:46:21;;;;;;;18.90;11.63;;;;;;;10.81;99.57;96177.56;10410338;28;20232;-75
2022/11/09 13:51:47;;;;;;;18.00;10.87;;;;;;;10.96;100.00;96186.31;10369867;28;20527;-76
2022/11/09 13:57:06;;;;;;;14.02;8.00;;;;;;;11.12;100.00;96195.09;10352177;28;20953;-77
2022/11/09 14:02:25;;;;;;;13.18;8.98;;;;;;;11.03;100.00;96186.47;10346120;28;20209;-76
2022/11/09 14:07:44;;;;;;;11.53;7.40;;;;;;;10.75;100.00;96201.81;10327034;28;20603;-76
2022/11/09 14:13:13;;;;;;;16.33;10.53;;;;;;;10.47;100.00;96229.25;10347645;28;20197;-75
2022/11/09 14:18:32;;;;;;;18.20;12.67;;;;;;;10.00;100.00;96230.78;10344661;28;20194;-76
2022/11/09 14:23:53;;;;;;;16.43;9.87;;;;;;;10.04;100.00;96239.09;10346652;28;20209;-75
2022/11/09 14:29:23;;;;;;;14.73;10.80;;;;;;;9.81;100.00;96241.56;10345699;28;20617;-76
2022/11/09 14:34:42;;;;;;;15.27;9.30;;;;;;;9.80;100.00;96247.75;10357928;28;20288;-75
2022/11/09 14:40:29;;;;;;;17.43;11.67;;;;;;;9.59;100.00;96250.88;10395434;28;20264;-76
2022/11/09 14:45:54;;;;;;;21.53;9.80;;;;;;;9.47;100.00;96260.81;10409569;28;20228;-75
2022/11/09 14:51:20;;;;;;;18.03;10.50;;;;;;;9.28;100.00;96272.38;10431204;28;20188;-75
2022/11/09 14:56:45;;;;;;;14.17;9.10;;;;;;;9.02;100.00;96269.81;10403580;28;20192;-75
2022/11/09 15:02:14;;;;;;;16.60;11.07;;;;;;;8.83;100.00;96283.97;10394443;28;20220;-75
2022/11/09 15:07:37;;;;;;;16.77;11.30;;;;;;;8.79;100.00;96278.25;10395617;28;20212;-75
2022/11/09 15:13:29;;;;;;;17.87;10.90;;;;;;;8.76;100.00;96283.78;10372033;28;20201;-75
2022/11/09 15:26:14;;;;;;;23.40;12.97;;;;;;;8.67;100.00;96282.91;10265650;28;20699;-76
2022/11/09 15:37:55;;;;;;;16.43;11.67;;;;;;;8.70;100.00;96300.06;10214918;28;20235;-75
2022/11/09 15:43:15;;;;;;;15.47;10.30;;;;;;;8.72;100.00;96287.66;10333245;28;20873;-75
2022/11/09 15:48:34;;;;;;;19.17;10.87;;;;;;;8.72;100.00;96301.53;10354676;28;20229;-75
2022/11/09 15:53:53;;;;;;;17.17;11.87;;;;;;;8.67;100.00;96309.03;10374184;28;20653;-75
2022/11/09 15:59:20;;;;;;;19.67;12.77;;;;;;;8.59;100.00;96316.81;10373712;28;20201;-75
2022/11/09 16:04:39;;;;;;;14.70;10.53;;;;;;;8.66;100.00;96335.28;10358965;28;20317;-75
2022/11/09 16:09:58;;;;;;;24.63;15.77;;;;;;;8.72;100.00;96330.25;10354823;28;20284;-74
2022/11/09 16:15:18;;;;;;;21.40;11.50;;;;;;;8.83;100.00;96339.63;10352921;28;20190;-75
2022/11/09 16:20:38;;;;;;;17.30;11.63;;;;;;;8.91;100.00;96337.06;10351176;28;20245;-75
2022/11/09 16:25:58;;;;;;;17.67;11.10;;;;;;;8.89;100.00;96352.06;10347656;28;20217;-75
2022/11/09 16:31:17;;;;;;;18.30;11.47;;;;;;;8.90;100.00;96351.09;10343724;28;20198;-74
2022/11/09 16:36:36;;;;;;;18.37;12.10;;;;;;;8.94;100.00;96356.81;10339065;28;20697;-75
2022/11/09 16:41:57;;;;;;;17.00;10.80;;;;;;;8.98;100.00;96358.16;10361852;28;20272;-75
2022/11/09 16:47:17;;;;;;;19.10;13.03;;;;;;;8.89;100.00;96372.16;10397825;28;20759;-75
2022/11/09 16:52:37;;;;;;;22.60;14.80;;;;;;;8.81;100.00;96357.25;10413124;28;20659;-75
2022/11/09 16:57:56;;;;;;;19.10;12.77;;;;;;;8.87;100.00;96369.69;10403621;28;20201;-75
2022/11/09 17:03:15;;;;;;;23.13;14.63;;;;;;;8.97;100.00;96369.56;10409834;28;20279;-75
2022/11/09 17:08:34;;;;;;;19.60;13.07;;;;;;;9.00;100.00;96384.13;10409649;28;20192;-75
2022/11/09 17:13:55;;;;;;;25.03;14.63;;;;;;;8.99;100.00;96392.94;10440665;28;20578;-75
2022/11/09 17:19:14;;;;;;;18.30;9.67;;;;;;;9.06;100.00;96393.97;10428413;28;20244;-76
2022/11/09 17:24:33;;;;;;;20.47;10.83;;;;;;;9.00;100.00;96410.25;10404171;28;20220;-75
2022/11/09 17:29:52;;;;;;;26.33;15.80;;;;;;;8.97;100.00;96395.69;10404567;28;20192;-75
2022/11/09 17:35:11;;;;;;;23.37;15.10;;;;;;;9.01;100.00;96394.44;10404435;28;20185;-75
2022/11/09 17:40:30;;;;;;;27.03;16.40;;;;;;;9.02;100.00;96410.91;10403737;28;20255;-75
2022/11/09 17:45:49;;;;;;;26.43;15.37;;;;;;;8.98;100.00;96414.84;10403630;28;20225;-75
2022/11/09 17:51:08;;;;;;;27.40;14.77;;;;;;;9.01;100.00;96402.28;10403580;28;20204;-75
2022/11/09 17:56:27;;;;;;;26.93;14.57;;;;;;;9.06;100.00;96415.69;10387431;28;20578;-75
2022/11/09 18:01:47;;;;;;;25.20;16.03;;;;;;;9.10;100.00;96424.06;10402418;28;20204;-75
2022/11/09 18:07:06;;;;;;;28.40;15.07;;;;;;;9.09;100.00;96427.63;10401833;28;20228;-75
2022/11/09 18:12:25;;;;;;;23.33;12.90;;;;;;;9.09;100.00;96432.84;10400776;28;20588;-76
2022/11/09 18:17:44;;;;;;;26.13;15.70;;;;;;;9.09;100.00;96430.25;10410921;28;20193;-75
2022/11/09 18:23:03;;;;;;;24.60;15.47;;;;;;;9.17;100.00;96434.69;10401620;28;20193;-75
2022/11/09 18:28:22;;;;;;;28.23;17.90;;;;;;;9.15;100.00;96421.78;10420781;28;20227;-76
2022/11/09 18:33:41;;;;;;;28.90;14.63;;;;;;;9.23;100.00;96427.06;10443142;28;20195;-75
2022/11/09 18:39:02;;;;;;;25.97;16.03;;;;;;;9.18;100.00;96421.47;10440956;28;20235;-75
2022/11/09 18:44:20;;;;;;;30.07;14.70;;;;;;;9.20;100.00;96429.97;10441453;28;20680;-75
2022/11/09 18:49:39;;;;;;;26.50;14.90;;;;;;;9.16;100.00;96438.28;10440633;28;20266;-76
2022/11/09 18:54:58;;;;;;;22.10;14.67;;;;;;;9.15;100.00;96442.69;10440470;28;20629;-75
2022/11/09 19:00:17;;;;;;;17.63;10.90;;;;;;;9.13;100.00;96441.19;10440594;28;20192;-75
2022/11/09 19:05:41;;;;;;;21.30;13.17;;;;;;;9.14;100.00;96458.53;10439605;28;20224;-75
2022/11/09 19:11:05;;;;;;;25.50;14.10;;;;;;;9.09;100.00;96459.78;10439559;28;20570;-76
2022/11/09 19:16:25;;;;;;;24.93;15.03;;;;;;;8.84;100.00;96458.00;10440118;28;20558;-76
2022/11/09 19:21:52;;;;;;;22.57;14.17;;;;;;;8.81;100.00;96469.56;10439742;28;20188;-76
2022/11/09 19:27:11;;;;;;;22.27;14.77;;;;;;;8.77;100.00;96480.47;10423434;28;20215;-76
2022/11/09 19:32:30;;;;;;;20.77;12.17;;;;;;;8.84;100.00;96491.97;10439089;28;20515;-76
2022/11/09 19:37:48;;;;;;;21.27;13.57;;;;;;;8.83;100.00;96493.72;10437679;28;20239;-77
2022/11/09 19:43:07;;;;;;;21.73;11.27;;;;;;;8.95;100.00;96491.72;10438475;28;20275;-78
2022/11/09 19:48:27;;;;;;;18.03;11.50;;;;;;;9.03;100.00;96483.13;10438859;28;20235;-77
2022/11/09 19:53:53;;;;;;;22.77;10.60;;;;;;;9.01;100.00;96490.28;10438555;28;20203;-77
2022/11/09 19:59:14;;;;;;;16.13;11.00;;;;;;;9.07;100.00;96493.09;10438943;28;20192;-77
2022/11/09 20:04:33;;;;;;;17.87;10.13;;;;;;;9.07;100.00;96507.97;10443794;28;20216;-77
2022/11/09 20:09:52;;;;;;;18.43;11.87;;;;;;;9.07;100.00;96494.91;10445706;28;20200;-76
2022/11/09 20:15:11;;;;;;;19.53;12.10;;;;;;;9.10;100.00;96500.66;10430311;28;20184;-76
2022/11/09 20:20:30;;;;;;;15.87;9.20;;;;;;;9.17;100.00;96516.53;10444772;28;20200;-76
2022/11/09 20:25:49;;;;;;;19.10;10.47;;;;;;;9.14;100.00;96508.97;10444637;28;20219;-76
2022/11/09 20:31:12;;;;;;;18.57;10.33;;;;;;;9.09;100.00;96521.69;10444751;28;20200;-75
2022/11/09 20:36:31;;;;;;;17.60;10.37;;;;;;;9.10;100.00;96525.97;10441447;28;20235;-76
2022/11/09 20:41:50;;;;;;;17.87;9.83;;;;;;;9.15;100.00;96530.72;10379473;28;20204;-76
2022/11/09 20:47:09;;;;;;;18.13;9.17;;;;;;;9.09;100.00;96538.19;10378369;28;20299;-77
2022/11/09 20:52:28;;;;;;;19.50;9.47;;;;;;;9.02;100.00;96541.56;10381261;28;20204;-76
2022/11/09 20:57:47;;;;;;;14.90;9.10;;;;;;;9.05;100.00;96543.88;10380336;28;20190;-76
2022/11/09 21:03:07;;;;;;;15.63;8.83;;;;;;;9.08;100.00;96539.19;10398975;28;20601;-76
2022/11/09 21:08:26;;;;;;;14.03;8.33;;;;;;;9.06;100.00;96546.34;10386935;28;20213;-76
2022/11/09 21:13:50;;;;;;;13.27;7.73;;;;;;;9.07;100.00;96549.78;10402594;28;20629;-75
2022/11/09 21:19:09;;;;;;;14.00;8.47;;;;;;;9.07;100.00;96562.84;10401860;28;20634;-75
2022/11/09 21:30:06;;;;;;;12.63;7.63;;;;;;;9.09;100.00;96577.38;10401351;28;20188;-75
2022/11/09 21:35:26;;;;;;;17.93;12.00;;;;;;;9.08;100.00;96574.91;10405917;28;20192;-75
2022/11/09 21:40:44;;;;;;;14.50;8.17;;;;;;;9.08;100.00;96593.22;10410014;28;20201;-76
2022/11/09 21:46:04;;;;;;;13.13;7.10;;;;;;;9.24;100.00;96597.78;10408914;28;20216;-77
2022/11/09 21:51:23;;;;;;;15.10;7.47;;;;;;;9.18;100.00;96614.88;10409308;28;20661;-75
2022/11/09 21:56:42;;;;;;;11.57;6.10;;;;;;;9.35;100.00;96623.69;10408478;28;20610;-76
2022/11/09 22:02:15;;;;;;;8.50;5.27;;;;;;;9.51;100.00;96620.38;10408367;28;20197;-76
2022/11/09 22:07:35;;;;;;;9.07;4.97;;;;;;;9.52;100.00;96629.03;10394735;28;20221;-75
2022/11/09 22:24:13;;;;;;;9.10;3.50;;;;;;;9.47;100.00;96629.50;10408144;28;20228;-75
2022/11/09 22:29:32;;;;;;;6.13;3.03;;;;;;;9.41;100.00;96615.22;10408740;28;20193;-76
2022/11/09 22:34:51;;;;;;;7.07;3.10;;;;;;;9.30;100.00;96598.97;10409354;28;20200;-75
2022/11/09 22:40:10;;;;;;;6.07;2.80;;;;;;;9.20;100.00;96599.84;10408662;28;20323;-75
2022/11/09 22:45:32;;;;;;;4.37;2.60;;;;;;;9.03;100.00;96603.31;10407808;28;20235;-77
2022/11/09 22:50:50;;;;;;;5.83;2.70;;;;;;;8.91;100.00;96608.75;10408287;28;20196;-75
2022/11/09 22:56:10;;;;;;;9.47;2.60;;;;;;;8.81;100.00;96623.69;10408165;28;20200;-76
2022/11/09 23:01:29;;;;;;;4.87;2.70;;;;;;;8.79;100.00;96623.00;10407807;28;20200;-75
2022/11/09 23:06:48;;;;;;;5.17;2.77;;;;;;;8.75;100.00;96634.72;10419384;28;20224;-76
2022/11/09 23:12:07;;;;;;;2.57;2.30;;;;;;;8.69;100.00;96625.66;10408039;28;20661;-75
2022/11/09 23:23:04;;;;;;;3.30;2.20;;;;;;;8.77;100.00;96642.41;10407751;28;20188;-76
2022/11/09 23:28:23;;;;;;;5.87;2.60;;;;;;;8.79;100.00;96658.75;10407503;28;20224;-75
2022/11/09 23:33:42;;;;;;;8.83;2.47;;;;;;;8.71;100.00;96668.16;10408645;28;20196;-76
2022/11/09 23:39:01;;;;;;;6.37;2.10;;;;;;;8.78;100.00;96659.72;10413374;28;20712;-75
2022/11/09 23:44:20;;;;;;;5.80;1.90;;;;;;;8.83;100.00;96654.88;10415420;28;20303;-75
2022/11/09 23:49:39;;;;;;;5.50;1.80;;;;;;;8.84;100.00;96672.19;10414942;28;20203;-76
2022/11/09 23:54:58;;;;;;;4.33;2.20;;;;;;;8.85;100.00;96679.88;10415448;28;20192;-75
